Time,TemperatureF,DewpointF,PressureIn,WindDirection,WindDirectionDegrees,WindSpeedMPH,WindSpeedGustMPH,Humidity,HourlyPrecipIn,Conditions,Clouds,dailyrainin,SoftwareType,DateUTC
2013-01-23 00:00:00,19.9,12.0,30.27,SE,142,0.0,0.0,71,0.00,,---,0.00,VWS V14.01,2013-01-23 06:00:00,
2013-01-23 00:04:00,20.2,12.3,30.27,SE,142,0.0,0.0,71,0.00,,---,0.00,VWS V14.01,2013-01-23 06:04:00,
2013-01-23 00:05:00,20.2,12.3,30.27,SE,142,0.0,0.0,71,0.00,,---,0.00,VWS V14.01,2013-01-23 06:05:00,
2013-01-23 00:09:00,20.2,12.3,30.27,SE,142,0.0,0.0,71,0.00,,---,0.00,VWS V14.01,2013-01-23 06:09:00,
2013-01-23 00:10:00,20.2,12.3,30.27,SE,142,0.0,0.0,71,0.00,,---,0.00,VWS V14.01,2013-01-23 06:10:00,
2013-01-23 00:14:00,20.0,12.1,30.27,SE,142,0.0,0.0,71,0.00,,---,0.00,VWS V14.01,2013-01-23 06:14:00,
2013-01-23 00:15:00,20.0,12.1,30.27,SE,142,0.0,0.0,71,0.00,,---,0.00,VWS V14.01,2013-01-23 06:15:00,
2013-01-23 00:19:00,19.9,12.0,30.27,SE,142,0.0,0.0,71,0.00,,---,0.00,VWS V14.01,2013-01-23 06:19:00,
2013-01-23 00:20:00,19.9,12.0,30.27,SE,142,0.0,0.0,71,0.00,,---,0.00,VWS V14.01,2013-01-23 06:20:00,
2013-01-23 00:25:00,19.7,11.8,30.27,SE,142,0.0,0.0,71,0.00,,---,0.00,VWS V14.01,2013-01-23 06:25:00,
2013-01-23 00:26:00,19.7,11.8,30.27,SE,142,0.0,0.0,71,0.00,,---,0.00,VWS V14.01,2013-01-23 06:26:00,
2013-01-23 00:30:00,19.9,12.0,30.27,SE,142,0.0,0.0,71,0.00,,---,0.00,VWS V14.01,2013-01-23 06:30:00,
2013-01-23 00:31:00,20.0,12.1,30.27,SE,142,0.0,0.0,71,0.00,,---,0.00,VWS V14.01,2013-01-23 06:31:00,
2013-01-23 00:35:00,20.0,12.1,30.27,SE,142,0.0,0.0,71,0.00,,---,0.00,VWS V14.01,2013-01-23 06:35:00,
2013-01-23 00:36:00,20.0,12.4,30.27,SE,142,0.0,0.0,72,0.00,,---,0.00,VWS V14.01,2013-01-23 06:36:00,
2013-01-23 00:40:00,20.3,12.4,30.27,SE,142,0.0,0.0,71,0.00,,---,0.00,VWS V14.01,2013-01-23 06:40:00,
2013-01-23 00:41:00,20.5,12.6,30.27,SE,142,0.0,0.0,71,0.00,,---,0.00,VWS V14.01,2013-01-23 06:41:00,
2013-01-23 00:42:00,20.5,12.6,30.27,SE,142,0.0,0.0,71,0.00,,---,0.00,VWS V14.01,2013-01-23 06:42:00,
2013-01-23 00:45:00,20.3,12.1,30.27,SE,142,0.0,0.0,70,0.00,,---,0.00,VWS V14.01,2013-01-23 06:45:00,
2013-01-23 00:46:00,20.2,12.0,30.27,SE,142,0.0,0.0,70,0.00,,---,0.00,VWS V14.01,2013-01-23 06:46:00,
2013-01-23 00:47:00,20.2,12.0,30.27,SE,142,0.0,0.0,70,0.00,,---,0.00,VWS V14.01,2013-01-23 06:47:00,
2013-01-23 00:50:00,19.7,11.5,30.27,SE,142,0.0,0.0,70,0.00,,---,0.00,VWS V14.01,2013-01-23 06:50:00,
2013-01-23 00:51:00,19.5,11.3,30.27,SE,142,0.0,0.0,70,0.00,,---,0.00,VWS V14.01,2013-01-23 06:51:00,
2013-01-23 00:52:00,19.5,11.3,30.27,SE,142,0.0,0.0,70,0.00,,---,0.00,VWS V14.01,2013-01-23 06:52:00,
2013-01-23 00:55:00,19.1,10.9,30.27,SE,142,0.0,0.0,70,0.00,,---,0.00,VWS V14.01,2013-01-23 06:55:00,
2013-01-23 00:57:00,18.9,11.1,30.27,SE,142,0.0,0.0,71,0.00,,---,0.00,VWS V14.01,2013-01-23 06:57:00,
2013-01-23 01:01:00,18.9,11.1,30.26,SE,142,0.0,0.0,71,0.00,,---,0.00,VWS V14.01,2013-01-23 07:01:00,
2013-01-23 01:02:00,18.9,11.4,30.26,SE,142,0.0,0.0,72,0.00,,---,0.00,VWS V14.01,2013-01-23 07:02:00,
2013-01-23 01:03:00,18.8,11.0,30.26,SE,142,0.0,0.0,71,0.00,,---,0.00,VWS V14.01,2013-01-23 07:03:00,
2013-01-23 01:06:00,18.8,11.3,30.26,SE,142,0.0,0.0,72,0.00,,---,0.00,VWS V14.01,2013-01-23 07:06:00,
2013-01-23 01:07:00,18.6,11.1,30.26,SE,142,0.0,0.0,72,0.00,,---,0.00,VWS V14.01,2013-01-23 07:07:00,
2013-01-23 01:08:00,18.6,11.1,30.26,SE,142,0.0,0.0,72,0.00,,---,0.00,VWS V14.01,2013-01-23 07:08:00,
2013-01-23 02:03:00,18.6,11.1,30.26,SE,142,0.0,0.0,72,0.00,,---,0.00,VWS V14.01,2013-01-23 08:03:00,
2013-01-23 02:04:00,17.5,10.3,30.25,SE,142,0.0,0.0,73,0.00,,---,0.00,VWS V14.01,2013-01-23 08:04:00,
2013-01-23 02:08:00,17.5,10.3,30.25,SE,142,0.0,0.0,73,0.00,,---,0.00,VWS V14.01,2013-01-23 08:08:00,
2013-01-23 02:09:00,17.5,10.3,30.25,SE,142,0.0,0.0,73,0.00,,---,0.00,VWS V14.01,2013-01-23 08:09:00,
2013-01-23 02:13:00,17.5,10.3,30.25,SE,142,0.0,0.0,73,0.00,,---,0.00,VWS V14.01,2013-01-23 08:13:00,
2013-01-23 02:14:00,17.5,10.3,30.25,SE,142,0.0,0.0,73,0.00,,---,0.00,VWS V14.01,2013-01-23 08:14:00,
2013-01-23 02:18:00,17.5,10.6,30.25,SE,142,0.0,0.0,74,0.00,,---,0.00,VWS V14.01,2013-01-23 08:18:00,
2013-01-23 02:19:00,17.5,10.6,30.25,SE,142,0.0,0.0,74,0.00,,---,0.00,VWS V14.01,2013-01-23 08:19:00,
2013-01-23 02:23:00,17.5,10.6,30.25,SE,142,0.0,0.0,74,0.00,,---,0.00,VWS V14.01,2013-01-23 08:23:00,
2013-01-23 02:24:00,17.5,10.6,30.25,SE,142,0.0,0.0,74,0.00,,---,0.00,VWS V14.01,2013-01-23 08:24:00,
2013-01-23 02:28:00,17.8,10.9,30.25,SE,142,0.0,0.0,74,0.00,,---,0.00,VWS V14.01,2013-01-23 08:28:00,
2013-01-23 02:29:00,17.8,10.9,30.25,SE,142,0.0,0.0,74,0.00,,---,0.00,VWS V14.01,2013-01-23 08:29:00,
2013-01-23 02:30:00,17.8,10.9,30.25,SE,142,0.0,0.0,74,0.00,,---,0.00,VWS V14.01,2013-01-23 08:30:00,
2013-01-23 02:33:00,17.8,10.9,30.25,SE,142,0.0,0.0,74,0.00,,---,0.00,VWS V14.01,2013-01-23 08:33:00,
2013-01-23 02:34:00,17.8,10.9,30.25,SE,142,0.0,0.0,74,0.00,,---,0.00,VWS V14.01,2013-01-23 08:34:00,
2013-01-23 02:35:00,17.8,10.9,30.25,SE,142,0.0,0.0,74,0.00,,---,0.00,VWS V14.01,2013-01-23 08:35:00,
2013-01-23 02:38:00,17.7,10.8,30.25,SE,142,0.0,0.0,74,0.00,,---,0.00,VWS V14.01,2013-01-23 08:38:00,
2013-01-23 02:39:00,17.7,10.8,30.25,SE,142,0.0,0.0,74,0.00,,---,0.00,VWS V14.01,2013-01-23 08:39:00,
2013-01-23 02:40:00,17.7,10.8,30.25,SE,142,0.0,0.0,74,0.00,,---,0.00,VWS V14.01,2013-01-23 08:40:00,
2013-01-23 02:43:00,17.7,10.8,30.25,SE,142,0.0,0.0,74,0.00,,---,0.00,VWS V14.01,2013-01-23 08:43:00,
2013-01-23 02:44:00,17.7,10.8,30.25,SE,142,0.0,0.0,74,0.00,,---,0.00,VWS V14.01,2013-01-23 08:44:00,
2013-01-23 02:45:00,17.7,10.8,30.24,SE,142,0.0,0.0,74,0.00,,---,0.00,VWS V14.01,2013-01-23 08:45:00,
2013-01-23 02:48:00,17.7,10.8,30.24,SE,142,0.0,0.0,74,0.00,,---,0.00,VWS V14.01,2013-01-23 08:48:00,
2013-01-23 02:49:00,17.7,10.8,30.24,SE,142,0.0,0.0,74,0.00,,---,0.00,VWS V14.01,2013-01-23 08:49:00,
2013-01-23 02:50:00,17.7,10.8,30.24,SE,142,0.0,0.0,74,0.00,,---,0.00,VWS V14.01,2013-01-23 08:50:00,
2013-01-23 02:54:00,17.7,10.8,30.24,SE,142,0.0,0.0,74,0.00,,---,0.00,VWS V14.01,2013-01-23 08:54:00,
2013-01-23 06:46:00,17.7,10.8,30.24,SE,142,0.0,0.0,74,0.00,,---,0.00,VWS V14.01,2013-01-23 12:46:00,
2013-01-23 06:51:00,14.8,9.8,30.22,SE,142,0.0,0.0,80,0.00,,---,0.00,VWS V14.01,2013-01-23 12:51:00,
2013-01-23 06:52:00,14.8,9.8,30.22,SE,142,0.0,0.0,80,0.00,,---,0.00,VWS V14.01,2013-01-23 12:52:00,
2013-01-23 06:57:00,14.6,9.6,30.22,SE,142,0.0,0.0,80,0.00,,---,0.00,VWS V14.01,2013-01-23 12:57:00,
2013-01-23 06:58:00,14.6,9.6,30.22,SE,142,0.0,0.0,80,0.00,,---,0.00,VWS V14.01,2013-01-23 12:58:00,
2013-01-23 07:02:00,14.4,9.4,30.22,SE,142,0.0,0.0,80,0.00,,---,0.00,VWS V14.01,2013-01-23 13:02:00,
2013-01-23 07:03:00,14.4,9.4,30.22,SE,142,0.0,0.0,80,0.00,,---,0.00,VWS V14.01,2013-01-23 13:03:00,
2013-01-23 07:07:00,14.3,9.3,30.22,SE,142,0.0,0.0,80,0.00,,---,0.00,VWS V14.01,2013-01-23 13:07:00,
2013-01-23 07:08:00,14.3,9.3,30.22,SE,142,0.0,0.0,80,0.00,,---,0.00,VWS V14.01,2013-01-23 13:08:00,
2013-01-23 07:12:00,14.3,9.6,30.22,SE,142,0.0,0.0,81,0.00,,---,0.00,VWS V14.01,2013-01-23 13:12:00,
2013-01-23 07:13:00,14.3,9.6,30.22,SE,142,0.0,0.0,81,0.00,,---,0.00,VWS V14.01,2013-01-23 13:13:00,
2013-01-23 07:17:00,14.3,9.6,30.23,SE,142,0.0,0.0,81,0.00,,---,0.00,VWS V14.01,2013-01-23 13:17:00,
2013-01-23 07:18:00,14.3,9.6,30.23,SE,142,0.0,0.0,81,0.00,,---,0.00,VWS V14.01,2013-01-23 13:18:00,
2013-01-23 07:19:00,14.3,9.6,30.23,SE,142,0.0,0.0,81,0.00,,---,0.00,VWS V14.01,2013-01-23 13:19:00,
2013-01-23 07:23:00,14.8,10.3,30.23,SE,142,0.0,0.0,82,0.00,,---,0.00,VWS V14.01,2013-01-23 13:23:00,
2013-01-23 07:24:00,14.8,10.3,30.23,SE,142,0.0,0.0,82,0.00,,---,0.00,VWS V14.01,2013-01-23 13:24:00,
2013-01-23 07:28:00,14.9,10.1,30.23,SE,142,0.0,0.0,81,0.00,,---,0.00,VWS V14.01,2013-01-23 13:28:00,
2013-01-23 07:29:00,15.1,10.3,30.23,SE,142,0.0,0.0,81,0.00,,---,0.00,VWS V14.01,2013-01-23 13:29:00,
2013-01-23 07:33:00,15.2,10.4,30.23,SE,142,0.0,0.0,81,0.00,,---,0.00,VWS V14.01,2013-01-23 13:33:00,
2013-01-23 07:34:00,15.2,10.4,30.23,SE,142,0.0,0.0,81,0.00,,---,0.00,VWS V14.01,2013-01-23 13:34:00,
2013-01-23 07:38:00,15.2,10.4,30.23,SE,142,0.0,0.0,81,0.00,,---,0.00,VWS V14.01,2013-01-23 13:38:00,
2013-01-23 07:39:00,15.2,10.4,30.23,SE,142,0.0,0.0,81,0.00,,---,0.00,VWS V14.01,2013-01-23 13:39:00,
2013-01-23 07:43:00,14.9,10.1,30.23,SE,142,0.0,0.0,81,0.00,,---,0.00,VWS V14.01,2013-01-23 13:43:00,
2013-01-23 07:44:00,14.9,10.1,30.23,SE,142,0.0,0.0,81,0.00,,---,0.00,VWS V14.01,2013-01-23 13:44:00,
2013-01-23 07:48:00,14.8,10.0,30.22,SE,142,0.0,0.0,81,0.00,,---,0.00,VWS V14.01,2013-01-23 13:48:00,
2013-01-23 07:49:00,14.8,10.0,30.22,SE,142,0.0,0.0,81,0.00,,---,0.00,VWS V14.01,2013-01-23 13:49:00,
2013-01-23 07:53:00,14.6,9.8,30.22,SE,142,0.0,0.0,81,0.00,,---,0.00,VWS V14.01,2013-01-23 13:53:00,
2013-01-23 07:54:00,14.6,9.8,30.22,SE,142,0.0,0.0,81,0.00,,---,0.00,VWS V14.01,2013-01-23 13:54:00,
2013-01-23 07:59:00,14.6,9.8,30.22,SE,142,0.0,0.0,81,0.00,,---,0.00,VWS V14.01,2013-01-23 13:59:00,
2013-01-23 08:04:00,14.6,9.8,30.23,SE,142,0.0,0.0,81,0.00,,---,0.00,VWS V14.01,2013-01-23 14:04:00,
2013-01-23 08:09:00,14.9,10.1,30.23,SE,142,0.0,0.0,81,0.00,,---,0.00,VWS V14.01,2013-01-23 14:09:00,
2013-01-23 08:10:00,14.9,10.1,30.23,SE,142,0.0,0.0,81,0.00,,---,0.00,VWS V14.01,2013-01-23 14:10:00,
2013-01-23 08:14:00,14.9,10.1,30.23,SE,142,0.0,0.0,81,0.00,,---,0.00,VWS V14.01,2013-01-23 14:14:00,
2013-01-23 08:15:00,14.9,10.1,30.23,SE,142,0.0,0.0,81,0.00,,---,0.00,VWS V14.01,2013-01-23 14:15:00,
2013-01-23 08:19:00,15.6,11.1,30.23,SE,142,2.0,3.0,82,0.00,,---,0.00,VWS V14.01,2013-01-23 14:19:00,
2013-01-23 08:20:00,15.7,11.2,30.23,SE,142,2.0,3.0,82,0.00,,---,0.00,VWS V14.01,2013-01-23 14:20:00,
2013-01-23 08:25:00,16.2,11.4,30.23,SE,142,1.0,2.0,81,0.00,,---,0.00,VWS V14.01,2013-01-23 14:25:00,
2013-01-23 08:30:00,16.7,11.9,30.22,SE,142,2.0,2.0,81,0.00,,---,0.00,VWS V14.01,2013-01-23 14:30:00,
2013-01-23 08:35:00,17.2,12.4,30.22,SE,142,0.0,2.0,81,0.00,,---,0.00,VWS V14.01,2013-01-23 14:35:00,
2013-01-23 08:40:00,17.7,12.6,30.22,SE,142,0.0,2.0,80,0.00,,---,0.00,VWS V14.01,2013-01-23 14:40:00,
2013-01-23 08:41:00,17.8,12.7,30.22,SE,142,0.0,0.0,80,0.00,,---,0.00,VWS V14.01,2013-01-23 14:41:00,
2013-01-23 08:45:00,18.1,13.0,30.23,SE,142,0.0,0.0,80,0.00,,---,0.00,VWS V14.01,2013-01-23 14:45:00,
2013-01-23 08:46:00,18.1,13.0,30.23,SE,142,0.0,0.0,80,0.00,,---,0.00,VWS V14.01,2013-01-23 14:46:00,
2013-01-23 08:50:00,18.6,13.5,30.23,SE,142,0.0,0.0,80,0.00,,---,0.00,VWS V14.01,2013-01-23 14:50:00,
2013-01-23 08:51:00,18.6,13.5,30.23,SE,142,0.0,0.0,80,0.00,,---,0.00,VWS V14.01,2013-01-23 14:51:00,
2013-01-23 08:55:00,19.2,14.1,30.23,SE,142,0.0,0.0,80,0.00,,---,0.00,VWS V14.01,2013-01-23 14:55:00,
2013-01-23 08:56:00,19.2,14.1,30.23,SE,142,0.0,0.0,80,0.00,,---,0.00,VWS V14.01,2013-01-23 14:56:00,
2013-01-23 09:00:00,19.9,14.7,30.23,SE,142,0.0,0.0,80,0.00,,---,0.00,VWS V14.01,2013-01-23 15:00:00,
2013-01-23 09:01:00,19.9,14.7,30.23,SE,142,0.0,0.0,80,0.00,,---,0.00,VWS V14.01,2013-01-23 15:01:00,
2013-01-23 09:05:00,20.3,15.1,30.23,SE,142,0.0,0.0,80,0.00,,---,0.00,VWS V14.01,2013-01-23 15:05:00,
2013-01-23 09:06:00,20.5,15.3,30.23,SE,142,0.0,0.0,80,0.00,,---,0.00,VWS V14.01,2013-01-23 15:06:00,
2013-01-23 09:07:00,20.5,15.3,30.23,SE,142,0.0,0.0,80,0.00,,---,0.00,VWS V14.01,2013-01-23 15:07:00,
2013-01-23 09:10:00,21.1,15.6,30.23,SE,142,0.0,0.0,79,0.00,,---,0.00,VWS V14.01,2013-01-23 15:10:00,
2013-01-23 09:11:00,21.1,15.6,30.23,SE,142,0.0,0.0,79,0.00,,---,0.00,VWS V14.01,2013-01-23 15:11:00,
2013-01-23 09:12:00,21.3,15.8,30.23,SE,142,0.0,0.0,79,0.00,,---,0.00,VWS V14.01,2013-01-23 15:12:00,
2013-01-23 09:15:00,21.9,16.4,30.23,SE,142,2.0,4.0,79,0.00,,---,0.00,VWS V14.01,2013-01-23 15:15:00,
2013-01-23 09:16:00,22.1,16.6,30.23,SE,142,0.0,4.0,79,0.00,,---,0.00,VWS V14.01,2013-01-23 15:16:00,
2013-01-23 09:17:00,22.2,16.7,30.23,SE,142,3.0,4.0,79,0.00,,---,0.00,VWS V14.01,2013-01-23 15:17:00,
2013-01-23 09:21:00,23.0,17.5,30.23,SE,142,1.0,4.0,79,0.00,,---,0.00,VWS V14.01,2013-01-23 15:21:00,
2013-01-23 09:22:00,23.3,17.8,30.23,SE,142,0.0,2.0,79,0.00,,---,0.00,VWS V14.01,2013-01-23 15:22:00,
2013-01-23 09:26:00,24.1,18.2,30.23,SE,142,1.0,4.0,78,0.00,,---,0.00,VWS V14.01,2013-01-23 15:26:00,
2013-01-23 09:27:00,24.4,18.5,30.23,SE,142,0.0,4.0,78,0.00,,---,0.00,VWS V14.01,2013-01-23 15:27:00,
2013-01-23 09:31:00,25.1,18.9,30.22,SE,142,0.0,4.0,77,0.00,,---,0.00,VWS V14.01,2013-01-23 15:31:00,
2013-01-23 09:32:00,25.4,19.2,30.22,SE,142,0.0,0.0,77,0.00,,---,0.00,VWS V14.01,2013-01-23 15:32:00,
2013-01-23 09:33:00,25.4,19.2,30.22,SE,142,4.0,4.0,77,0.00,,---,0.00,VWS V14.01,2013-01-23 15:33:00,
2013-01-23 09:36:00,26.1,19.9,30.22,SE,142,3.0,5.0,77,0.00,,---,0.00,VWS V14.01,2013-01-23 15:36:00,
2013-01-23 09:37:00,26.7,20.2,30.22,SE,142,2.0,6.0,76,0.00,,---,0.00,VWS V14.01,2013-01-23 15:37:00,
2013-01-23 09:38:00,26.7,20.2,30.22,SE,142,2.0,6.0,76,0.00,,---,0.00,VWS V14.01,2013-01-23 15:38:00,
2013-01-23 09:41:00,27.3,20.4,30.22,SE,142,2.0,4.0,75,0.00,,---,0.00,VWS V14.01,2013-01-23 15:41:00,
2013-01-23 09:42:00,27.5,20.6,30.22,SE,142,4.0,5.0,75,0.00,,---,0.00,VWS V14.01,2013-01-23 15:42:00,
2013-01-23 09:43:00,27.6,20.7,30.22,SE,142,3.0,5.0,75,0.00,,---,0.00,VWS V14.01,2013-01-23 15:43:00,
2013-01-23 09:46:00,28.2,21.0,30.21,SE,142,5.0,6.0,74,0.00,,---,0.00,VWS V14.01,2013-01-23 15:46:00,
2013-01-23 09:47:00,28.5,21.0,30.21,SE,142,3.0,6.0,73,0.00,,---,0.00,VWS V14.01,2013-01-23 15:47:00,
2013-01-23 09:48:00,28.7,21.1,30.21,SE,142,4.0,6.0,73,0.00,,---,0.00,VWS V14.01,2013-01-23 15:48:00,
2013-01-23 09:51:00,29.5,21.3,30.21,SE,146,6.0,9.0,71,0.00,,---,0.00,VWS V14.01,2013-01-23 15:51:00,
2013-01-23 09:52:00,29.8,21.6,30.21,SSE,147,9.0,10.0,71,0.00,,---,0.00,VWS V14.01,2013-01-23 15:52:00,
2013-01-23 09:53:00,29.8,21.2,30.21,SSE,148,9.0,10.0,70,0.00,,---,0.00,VWS V14.01,2013-01-23 15:53:00,
2013-01-23 09:56:00,30.4,21.1,30.21,SSE,153,4.0,11.0,68,0.00,,---,0.00,VWS V14.01,2013-01-23 15:56:00,
2013-01-23 09:57:00,30.7,21.4,30.21,SSE,153,6.0,11.0,68,0.00,,---,0.00,VWS V14.01,2013-01-23 15:57:00,
2013-01-23 09:58:00,30.7,21.4,30.21,SSE,153,4.0,11.0,68,0.00,,---,0.00,VWS V14.01,2013-01-23 15:58:00,
2013-01-23 10:01:00,31.3,21.6,30.21,SSE,153,5.0,9.0,67,0.00,,---,0.00,VWS V14.01,2013-01-23 16:01:00,
2013-01-23 10:02:00,31.5,21.8,30.21,SSE,153,3.0,9.0,67,0.00,,---,0.00,VWS V14.01,2013-01-23 16:02:00,
2013-01-23 10:03:00,31.5,21.5,30.21,SSE,153,4.0,9.0,66,0.00,,---,0.00,VWS V14.01,2013-01-23 16:03:00,
2013-01-23 10:06:00,31.9,21.9,30.21,SSE,153,4.0,9.0,66,0.00,,---,0.00,VWS V14.01,2013-01-23 16:06:00,
2013-01-23 10:07:00,32.1,22.0,30.21,SSE,153,4.0,9.0,66,0.00,,---,0.00,VWS V14.01,2013-01-23 16:07:00,
2013-01-23 10:08:00,32.2,22.1,30.21,SSE,153,4.0,9.0,66,0.00,,---,0.00,VWS V14.01,2013-01-23 16:08:00,
2013-01-23 10:12:00,32.8,22.7,30.21,SSE,153,4.0,10.0,66,0.00,,---,0.00,VWS V14.01,2013-01-23 16:12:00,
2013-01-23 10:13:00,32.9,22.4,30.21,SSE,153,5.0,10.0,65,0.00,,---,0.00,VWS V14.01,2013-01-23 16:13:00,
2013-01-23 10:14:00,32.9,22.8,30.21,SSE,153,6.0,10.0,66,0.00,,---,0.00,VWS V14.01,2013-01-23 16:14:00,
2013-01-23 10:18:00,33.7,23.2,30.22,SSE,153,4.0,10.0,65,0.00,,---,0.00,VWS V14.01,2013-01-23 16:18:00,
2013-01-23 10:19:00,33.8,23.3,30.22,SSE,153,6.0,10.0,65,0.00,,---,0.00,VWS V14.01,2013-01-23 16:19:00,
2013-01-23 10:23:00,34.4,23.5,30.22,SSE,153,5.0,7.0,64,0.00,,---,0.00,VWS V14.01,2013-01-23 16:23:00,
2013-01-23 10:24:00,34.6,23.3,30.22,SSE,153,4.0,7.0,63,0.00,,---,0.00,VWS V14.01,2013-01-23 16:24:00,
2013-01-23 10:28:00,35.2,24.3,30.22,SSE,153,3.0,7.0,64,0.00,,---,0.00,VWS V14.01,2013-01-23 16:28:00,
2013-01-23 10:29:00,35.3,24.0,30.22,SSE,153,4.0,7.0,63,0.00,,---,0.00,VWS V14.01,2013-01-23 16:29:00,
2013-01-23 10:33:00,35.3,24.4,30.22,SSE,155,5.0,6.0,64,0.00,,---,0.00,VWS V14.01,2013-01-23 16:33:00,
2013-01-23 10:34:00,35.3,24.4,30.22,SSE,155,5.0,6.0,64,0.00,,---,0.00,VWS V14.01,2013-01-23 16:34:00,
2013-01-23 10:38:00,35.3,24.0,30.22,SSE,155,2.0,6.0,63,0.00,,---,0.00,VWS V14.01,2013-01-23 16:38:00,
2013-01-23 10:39:00,35.3,24.0,30.22,SSE,155,1.0,6.0,63,0.00,,---,0.00,VWS V14.01,2013-01-23 16:39:00,
2013-01-23 10:40:00,35.3,24.0,30.22,SSE,155,0.0,6.0,63,0.00,,---,0.00,VWS V14.01,2013-01-23 16:40:00,
2013-01-23 10:43:00,35.5,24.2,30.22,SSE,155,0.0,0.0,63,0.00,,---,0.00,VWS V14.01,2013-01-23 16:43:00,
2013-01-23 10:44:00,35.6,24.3,30.22,SSE,155,0.0,0.0,63,0.00,,---,0.00,VWS V14.01,2013-01-23 16:44:00,
2013-01-23 10:45:00,35.6,24.3,30.22,SSE,155,0.0,0.0,63,0.00,,---,0.00,VWS V14.01,2013-01-23 16:45:00,
2013-01-23 10:48:00,36.0,24.6,30.22,SSE,155,4.0,6.0,63,0.00,,---,0.00,VWS V14.01,2013-01-23 16:48:00,
2013-01-23 10:49:00,36.3,24.1,30.22,SSE,155,4.0,6.0,61,0.00,,---,0.00,VWS V14.01,2013-01-23 16:49:00,
2013-01-23 10:50:00,36.5,24.3,30.22,SSE,155,3.0,6.0,61,0.00,,---,0.00,VWS V14.01,2013-01-23 16:50:00,
2013-01-23 10:53:00,37.2,24.2,30.22,SSE,155,5.0,7.0,59,0.00,,---,0.00,VWS V14.01,2013-01-23 16:53:00,
2013-01-23 10:54:00,37.3,24.3,30.22,SSE,155,4.0,7.0,59,0.00,,---,0.00,VWS V14.01,2013-01-23 16:54:00,
2013-01-23 10:55:00,37.5,24.1,30.22,SSE,155,4.0,7.0,58,0.00,,---,0.00,VWS V14.01,2013-01-23 16:55:00,
2013-01-23 10:58:00,37.8,24.4,30.22,SSE,155,4.0,7.0,58,0.00,,---,0.00,VWS V14.01,2013-01-23 16:58:00,
2013-01-23 10:59:00,37.9,24.0,30.22,SSE,155,4.0,7.0,57,0.00,,---,0.00,VWS V14.01,2013-01-23 16:59:00,
2013-01-23 11:00:00,38.0,24.5,30.23,SSE,155,4.0,7.0,58,0.00,,---,0.00,VWS V14.01,2013-01-23 17:00:00,
2013-01-23 11:03:00,38.0,24.1,30.23,SSE,155,3.0,5.0,57,0.00,,---,0.00,VWS V14.01,2013-01-23 17:03:00,
2013-01-23 11:04:00,38.0,24.1,30.23,SSE,155,4.0,5.0,57,0.00,,---,0.00,VWS V14.01,2013-01-23 17:04:00,
2013-01-23 11:06:00,38.0,24.1,30.23,SSE,155,2.0,7.0,57,0.00,,---,0.00,VWS V14.01,2013-01-23 17:06:00,
2013-01-23 11:08:00,38.0,24.1,30.23,SSE,155,4.0,7.0,57,0.00,,---,0.00,VWS V14.01,2013-01-23 17:08:00,
2013-01-23 11:09:00,38.0,24.1,30.23,SSE,155,4.0,7.0,57,0.00,,---,0.00,VWS V14.01,2013-01-23 17:09:00,
2013-01-23 11:10:00,38.0,24.1,30.23,SSE,155,4.0,7.0,57,0.00,,---,0.00,VWS V14.01,2013-01-23 17:10:00,
2013-01-23 11:11:00,37.9,23.6,30.23,SSE,155,4.0,5.0,56,0.00,,---,0.00,VWS V14.01,2013-01-23 17:11:00,
2013-01-23 11:13:00,37.9,23.6,30.23,SSE,155,3.0,6.0,56,0.00,,---,0.00,VWS V14.01,2013-01-23 17:13:00,
2013-01-23 11:15:00,37.9,23.6,30.23,SSE,155,4.0,6.0,56,0.00,,---,0.00,VWS V14.01,2013-01-23 17:15:00,
2013-01-23 11:16:00,37.9,23.6,30.23,SSE,155,2.0,6.0,56,0.00,,---,0.00,VWS V14.01,2013-01-23 17:16:00,
2013-01-23 11:19:00,37.9,23.6,30.23,SSE,155,4.0,6.0,56,0.00,,---,0.00,VWS V14.01,2013-01-23 17:19:00,
2013-01-23 11:20:00,37.9,24.0,30.23,SSE,155,5.0,6.0,57,0.00,,---,0.00,VWS V14.01,2013-01-23 17:20:00,
2013-01-23 11:21:00,37.9,23.6,30.23,SSE,155,3.0,4.0,56,0.00,,---,0.00,VWS V14.01,2013-01-23 17:21:00,
2013-01-23 11:24:00,37.9,23.2,30.23,SSE,155,3.0,4.0,55,0.00,,---,0.00,VWS V14.01,2013-01-23 17:24:00,
2013-01-23 11:25:00,37.9,23.2,30.23,SSE,155,4.0,5.0,55,0.00,,---,0.00,VWS V14.01,2013-01-23 17:25:00,
2013-01-23 11:26:00,37.9,23.2,30.23,SSE,155,3.0,5.0,55,0.00,,---,0.00,VWS V14.01,2013-01-23 17:26:00,
2013-01-23 11:29:00,38.0,23.3,30.23,SSE,155,5.0,5.0,55,0.00,,---,0.00,VWS V14.01,2013-01-23 17:29:00,
2013-01-23 11:30:00,38.0,23.3,30.23,SSE,155,4.0,5.0,55,0.00,,---,0.00,VWS V14.01,2013-01-23 17:30:00,
2013-01-23 11:31:00,38.0,23.3,30.23,SSE,155,3.0,4.0,55,0.00,,---,0.00,VWS V14.01,2013-01-23 17:31:00,
2013-01-23 11:34:00,38.2,23.5,30.23,SSE,155,2.0,4.0,55,0.00,,---,0.00,VWS V14.01,2013-01-23 17:34:00,
2013-01-23 11:35:00,38.3,23.6,30.23,SSE,155,2.0,4.0,55,0.00,,---,0.00,VWS V14.01,2013-01-23 17:35:00,
2013-01-23 11:36:00,38.3,23.6,30.23,SSE,155,3.0,5.0,55,0.00,,---,0.00,VWS V14.01,2013-01-23 17:36:00,
2013-01-23 11:37:00,38.3,23.6,30.23,SSE,155,3.0,5.0,55,0.00,,---,0.00,VWS V14.01,2013-01-23 17:37:00,
2013-01-23 11:39:00,38.5,23.8,30.23,SSE,155,3.0,5.0,55,0.00,,---,0.00,VWS V14.01,2013-01-23 17:39:00,
2013-01-23 11:40:00,38.5,23.8,30.23,SSE,155,3.0,5.0,55,0.00,,---,0.00,VWS V14.01,2013-01-23 17:40:00,
2013-01-23 11:41:00,38.6,23.4,30.23,SSE,155,3.0,3.0,54,0.00,,---,0.00,VWS V14.01,2013-01-23 17:41:00,
2013-01-23 11:42:00,38.6,23.4,30.23,SSE,155,3.0,3.0,54,0.00,,---,0.00,VWS V14.01,2013-01-23 17:42:00,
2013-01-23 11:44:00,38.9,23.7,30.23,SSE,155,1.0,5.0,54,0.00,,---,0.00,VWS V14.01,2013-01-23 17:44:00,
2013-01-23 11:45:00,38.9,23.7,30.22,SSE,155,0.0,5.0,54,0.00,,---,0.00,VWS V14.01,2013-01-23 17:45:00,
2013-01-23 11:46:00,39.1,23.9,30.22,SSE,155,2.0,5.0,54,0.00,,---,0.00,VWS V14.01,2013-01-23 17:46:00,
2013-01-23 11:47:00,39.1,23.9,30.22,SSE,155,6.0,6.0,54,0.00,,---,0.00,VWS V14.01,2013-01-23 17:47:00,
2013-01-23 11:50:00,39.2,23.5,30.22,SSE,155,3.0,6.0,53,0.00,,---,0.00,VWS V14.01,2013-01-23 17:50:00,
2013-01-23 11:51:00,39.2,23.5,30.22,SSE,155,2.0,2.0,53,0.00,,---,0.00,VWS V14.01,2013-01-23 17:51:00,
2013-01-23 11:52:00,39.2,23.5,30.22,SSE,155,1.0,3.0,53,0.00,,---,0.00,VWS V14.01,2013-01-23 17:52:00,
2013-01-23 11:55:00,39.3,23.6,30.22,SSE,155,6.0,6.0,53,0.00,,---,0.00,VWS V14.01,2013-01-23 17:55:00,
2013-01-23 11:56:00,39.3,23.6,30.22,SSE,155,4.0,6.0,53,0.00,,---,0.00,VWS V14.01,2013-01-23 17:56:00,
2013-01-23 11:57:00,39.3,22.7,30.22,SSE,155,2.0,6.0,51,0.00,,---,0.00,VWS V14.01,2013-01-23 17:57:00,
2013-01-23 12:00:00,39.5,23.8,30.21,SSE,155,0.0,6.0,53,0.00,,---,0.00,VWS V14.01,2013-01-23 18:00:00,
2013-01-23 12:01:00,39.6,23.9,30.21,SSE,155,1.0,1.0,53,0.00,,---,0.00,VWS V14.01,2013-01-23 18:01:00,
2013-01-23 12:02:00,39.6,23.9,30.21,SSE,155,3.0,4.0,53,0.00,,---,0.00,VWS V14.01,2013-01-23 18:02:00,
2013-01-23 12:05:00,39.9,23.7,30.21,SSE,155,1.0,6.0,52,0.00,,---,0.00,VWS V14.01,2013-01-23 18:05:00,
2013-01-23 12:06:00,39.9,23.7,30.21,SSE,155,0.0,6.0,52,0.00,,---,0.00,VWS V14.01,2013-01-23 18:06:00,
2013-01-23 12:07:00,40.1,23.9,30.21,SSE,155,0.0,6.0,52,0.00,,---,0.00,VWS V14.01,2013-01-23 18:07:00,
2013-01-23 12:08:00,40.1,23.9,30.21,SSE,155,0.0,6.0,52,0.00,,---,0.00,VWS V14.01,2013-01-23 18:08:00,
2013-01-23 12:10:00,40.2,23.5,30.21,SE,144,5.0,8.0,51,0.00,,---,0.00,VWS V14.01,2013-01-23 18:10:00,
2013-01-23 13:52:00,43.6,23.7,30.18,ESE,122,5.0,5.0,45,0.00,,---,0.00,VWS V14.01,2013-01-23 19:52:00,
2013-01-23 13:57:00,43.9,24.0,30.18,ESE,122,3.0,6.0,45,0.00,,---,0.00,VWS V14.01,2013-01-23 19:57:00,
2013-01-23 14:02:00,44.2,24.2,30.17,ESE,119,7.0,8.0,45,0.00,,---,0.00,VWS V14.01,2013-01-23 20:02:00,
2013-01-23 14:03:00,44.2,23.7,30.17,ESE,119,7.0,8.0,44,0.00,,---,0.00,VWS V14.01,2013-01-23 20:03:00,
2013-01-23 14:07:00,44.1,24.1,30.17,East,98,2.0,12.0,45,0.00,,---,0.00,VWS V14.01,2013-01-23 20:07:00,
2013-01-23 14:08:00,44.1,24.1,30.17,East,98,5.0,12.0,45,0.00,,---,0.00,VWS V14.01,2013-01-23 20:08:00,
2013-01-23 14:12:00,44.3,23.8,30.17,East,80,6.0,9.0,44,0.00,,---,0.00,VWS V14.01,2013-01-23 20:12:00,
2013-01-23 14:13:00,44.2,23.7,30.17,East,80,5.0,9.0,44,0.00,,---,0.00,VWS V14.01,2013-01-23 20:13:00,
2013-01-23 14:17:00,44.1,23.6,30.18,ENE,67,5.0,10.0,44,0.00,,---,0.00,VWS V14.01,2013-01-23 20:17:00,
2013-01-23 14:18:00,44.1,23.6,30.18,ENE,67,4.0,10.0,44,0.00,,---,0.00,VWS V14.01,2013-01-23 20:18:00,
2013-01-23 14:23:00,44.2,23.7,30.18,ENE,65,5.0,10.0,44,0.00,,---,0.00,VWS V14.01,2013-01-23 20:23:00,
2013-01-23 14:28:00,44.3,23.2,30.18,ENE,65,5.0,10.0,43,0.00,,---,0.00,VWS V14.01,2013-01-23 20:28:00,
2013-01-23 14:29:00,44.3,23.2,30.18,ENE,65,3.0,10.0,43,0.00,,---,0.00,VWS V14.01,2013-01-23 20:29:00,
2013-01-23 14:33:00,44.3,23.8,30.18,ENE,65,3.0,6.0,44,0.00,,---,0.00,VWS V14.01,2013-01-23 20:33:00,
2013-01-23 14:34:00,44.3,23.8,30.18,ENE,65,3.0,6.0,44,0.00,,---,0.00,VWS V14.01,2013-01-23 20:34:00,
2013-01-23 14:38:00,44.5,23.4,30.18,ENE,63,5.0,12.0,43,0.00,,---,0.00,VWS V14.01,2013-01-23 20:38:00,
2013-01-23 14:39:00,44.5,23.4,30.18,ENE,63,3.0,12.0,43,0.00,,---,0.00,VWS V14.01,2013-01-23 20:39:00,
2013-01-23 14:43:00,44.6,23.5,30.18,NE,49,7.0,13.0,43,0.00,,---,0.00,VWS V14.01,2013-01-23 20:43:00,
2013-01-23 14:44:00,44.6,23.5,30.18,NE,49,3.0,13.0,43,0.00,,---,0.00,VWS V14.01,2013-01-23 20:44:00,
2013-01-23 15:34:00,44.6,23.5,30.17,NE,49,13.0,13.0,43,0.00,,---,0.00,VWS V14.01,2013-01-23 21:34:00,
2013-01-23 15:39:00,44.9,22.6,30.18,NE,38,6.0,14.0,41,0.00,,---,0.00,VWS V14.01,2013-01-23 21:39:00,
2013-01-23 15:44:00,45.1,22.8,30.18,NE,37,7.0,13.0,41,0.00,,---,0.00,VWS V14.01,2013-01-23 21:44:00,
2013-01-23 15:49:00,45.1,22.2,30.19,NE,38,5.0,16.0,40,0.00,,---,0.00,VWS V14.01,2013-01-23 21:49:00,
2013-01-23 15:54:00,44.8,22.0,30.19,NE,36,10.0,15.0,40,0.00,,---,0.00,VWS V14.01,2013-01-23 21:54:00,
2013-01-23 15:55:00,44.8,21.4,30.19,NE,36,16.0,16.0,39,0.00,,---,0.00,VWS V14.01,2013-01-23 21:55:00,
2013-01-23 15:59:00,44.3,20.9,30.19,NE,38,5.0,18.0,39,0.00,,---,0.00,VWS V14.01,2013-01-23 21:59:00,
2013-01-23 16:00:00,44.3,21.5,30.19,NE,37,4.0,18.0,40,0.00,,---,0.00,VWS V14.01,2013-01-23 22:00:00,
2013-01-23 16:04:00,44.2,21.4,30.19,NE,36,3.0,13.0,40,0.00,,---,0.00,VWS V14.01,2013-01-23 22:04:00,
2013-01-23 16:05:00,44.2,21.4,30.19,NE,35,3.0,13.0,40,0.00,,---,0.00,VWS V14.01,2013-01-23 22:05:00,
2013-01-23 16:09:00,44.1,21.3,30.19,NNE,32,5.0,13.0,40,0.00,,---,0.00,VWS V14.01,2013-01-23 22:09:00,
2013-01-23 16:10:00,44.1,21.3,30.19,NNE,32,6.0,13.0,40,0.00,,---,0.00,VWS V14.01,2013-01-23 22:10:00,
2013-01-23 16:14:00,44.1,21.3,30.19,NE,42,8.0,16.0,40,0.00,,---,0.00,VWS V14.01,2013-01-23 22:14:00,
2013-01-23 16:15:00,44.1,21.3,30.19,NE,42,6.0,16.0,40,0.00,,---,0.00,VWS V14.01,2013-01-23 22:15:00,
2013-01-23 16:19:00,43.9,21.2,30.20,NE,39,5.0,16.0,40,0.00,,---,0.00,VWS V14.01,2013-01-23 22:19:00,
2013-01-23 16:20:00,43.9,21.2,30.20,NE,39,5.0,16.0,40,0.00,,---,0.00,VWS V14.01,2013-01-23 22:20:00,
2013-01-23 16:25:00,43.9,21.2,30.20,NNE,32,4.0,17.0,40,0.00,,---,0.00,VWS V14.01,2013-01-23 22:25:00,
2013-01-23 16:26:00,43.9,21.2,30.20,NE,35,8.0,17.0,40,0.00,,---,0.00,VWS V14.01,2013-01-23 22:26:00,
2013-01-23 16:30:00,43.8,21.1,30.21,NE,39,8.0,17.0,40,0.00,,---,0.00,VWS V14.01,2013-01-23 22:30:00,
2013-01-23 16:31:00,43.8,21.1,30.21,NE,38,5.0,6.0,40,0.00,,---,0.00,VWS V14.01,2013-01-23 22:31:00,
2013-01-23 16:35:00,43.6,20.9,30.21,NE,34,6.0,13.0,40,0.00,,---,0.00,VWS V14.01,2013-01-23 22:35:00,
2013-01-23 16:36:00,43.6,20.9,30.21,NE,34,4.0,13.0,40,0.00,,---,0.00,VWS V14.01,2013-01-23 22:36:00,
2013-01-23 16:40:00,43.3,20.6,30.21,NNE,31,3.0,13.0,40,0.00,,---,0.00,VWS V14.01,2013-01-23 22:40:00,
2013-01-23 16:41:00,43.3,21.2,30.21,NE,39,12.0,13.0,41,0.00,,---,0.00,VWS V14.01,2013-01-23 22:41:00,
2013-01-23 16:45:00,43.2,21.1,30.22,NNE,32,2.0,13.0,41,0.00,,---,0.00,VWS V14.01,2013-01-23 22:45:00,
2013-01-23 16:46:00,43.2,21.1,30.22,NNE,32,11.0,13.0,41,0.00,,---,0.00,VWS V14.01,2013-01-23 22:46:00,
2013-01-23 16:50:00,43.2,21.1,30.22,NNE,30,3.0,13.0,41,0.00,,---,0.00,VWS V14.01,2013-01-23 22:50:00,
2013-01-23 16:51:00,43.2,21.1,30.22,NNE,30,6.0,7.0,41,0.00,,---,0.00,VWS V14.01,2013-01-23 22:51:00,
2013-01-23 16:56:00,43.1,21.0,30.22,NNE,32,2.0,9.0,41,0.00,,---,0.00,VWS V14.01,2013-01-23 22:56:00,
2013-01-23 17:01:00,42.9,20.8,30.23,NNE,32,5.0,11.0,41,0.00,,---,0.00,VWS V14.01,2013-01-23 23:01:00,
2013-01-23 17:02:00,42.9,20.8,30.23,NNE,32,7.0,9.0,41,0.00,,---,0.00,VWS V14.01,2013-01-23 23:02:00,
2013-01-23 17:06:00,42.9,20.8,30.23,NNE,32,2.0,9.0,41,0.00,,---,0.00,VWS V14.01,2013-01-23 23:06:00,
2013-01-23 17:07:00,42.8,20.8,30.23,NNE,32,2.0,9.0,41,0.00,,---,0.00,VWS V14.01,2013-01-23 23:07:00,
2013-01-23 17:11:00,42.6,21.1,30.23,NNE,32,3.0,5.0,42,0.00,,---,0.00,VWS V14.01,2013-01-23 23:11:00,
2013-01-23 17:12:00,42.6,21.1,30.23,NNE,32,2.0,5.0,42,0.00,,---,0.00,VWS V14.01,2013-01-23 23:12:00,
2013-01-23 17:16:00,42.5,21.0,30.24,NNE,32,1.0,9.0,42,0.00,,---,0.00,VWS V14.01,2013-01-23 23:16:00,
2013-01-23 17:17:00,42.5,21.0,30.24,NNE,32,3.0,9.0,42,0.00,,---,0.00,VWS V14.01,2013-01-23 23:17:00,
2013-01-23 17:22:00,42.5,21.0,30.24,NNE,29,7.0,10.0,42,0.00,,---,0.00,VWS V14.01,2013-01-23 23:22:00,
2013-01-23 17:27:00,42.3,21.4,30.24,NE,34,7.0,16.0,43,0.00,,---,0.00,VWS V14.01,2013-01-23 23:27:00,
2013-01-23 17:32:00,41.8,21.5,30.25,NNE,33,6.0,9.0,44,0.00,,---,0.00,VWS V14.01,2013-01-23 23:32:00,
2013-01-23 17:37:00,41.2,21.5,30.25,NNE,30,4.0,12.0,45,0.00,,---,0.00,VWS V14.01,2013-01-23 23:37:00,
2013-01-23 17:38:00,41.2,21.5,30.25,NNE,30,6.0,12.0,45,0.00,,---,0.00,VWS V14.01,2013-01-23 23:38:00,
2013-01-23 17:42:00,40.6,20.9,30.25,NNE,24,5.0,15.0,45,0.00,,---,0.00,VWS V14.01,2013-01-23 23:42:00,
2013-01-23 17:43:00,40.5,20.9,30.25,NE,36,8.0,15.0,45,0.00,,---,0.00,VWS V14.01,2013-01-23 23:43:00,
2013-01-23 17:47:00,40.1,21.0,30.27,NNE,28,3.0,17.0,46,0.00,,---,0.00,VWS V14.01,2013-01-23 23:47:00,
2013-01-23 17:48:00,39.9,20.8,30.27,NNE,30,13.0,17.0,46,0.00,,---,0.00,VWS V14.01,2013-01-23 23:48:00,
2013-01-23 17:52:00,39.5,21.0,30.27,NNE,26,4.0,14.0,47,0.00,,---,0.00,VWS V14.01,2013-01-23 23:52:00,
2013-01-23 17:53:00,39.5,21.0,30.27,NNE,32,6.0,14.0,47,0.00,,---,0.00,VWS V14.01,2013-01-23 23:53:00,
2013-01-23 17:58:00,39.5,21.0,30.27,NNE,31,6.0,14.0,47,0.00,,---,0.00,VWS V14.01,2013-01-23 23:58:00,
2013-01-23 17:59:00,38.9,20.9,30.27,NNE,20,7.0,14.0,48,0.00,,---,0.00,VWS V14.01,2013-01-23 23:59:00,
2013-01-23 18:03:00,38.5,21.0,30.28,NNE,26,3.0,15.0,49,0.00,,---,0.00,VWS V14.01,2013-01-24 00:03:00,
2013-01-23 18:04:00,38.5,21.0,30.28,NNE,26,10.0,15.0,49,0.00,,---,0.00,VWS V14.01,2013-01-24 00:04:00,
2013-01-23 18:08:00,38.0,21.0,30.28,NNE,30,13.0,15.0,50,0.00,,---,0.00,VWS V14.01,2013-01-24 00:08:00,
2013-01-23 18:09:00,38.0,21.0,30.28,NNE,32,5.0,15.0,50,0.00,,---,0.00,VWS V14.01,2013-01-24 00:09:00,
2013-01-23 18:14:00,37.6,21.1,30.28,NNE,24,12.0,12.0,51,0.00,,---,0.00,VWS V14.01,2013-01-24 00:14:00,
2013-01-23 18:19:00,37.0,21.0,30.29,NNE,27,5.0,13.0,52,0.00,,---,0.00,VWS V14.01,2013-01-24 00:19:00,
2013-01-23 18:24:00,36.5,21.0,30.29,NNE,24,2.0,13.0,53,0.00,,---,0.00,VWS V14.01,2013-01-24 00:24:00,
2013-01-23 18:29:00,36.2,20.7,30.29,NNE,28,2.0,14.0,53,0.00,,---,0.00,VWS V14.01,2013-01-24 00:29:00,
2013-01-23 18:30:00,36.0,20.5,30.30,NNE,28,4.0,14.0,53,0.00,,---,0.00,VWS V14.01,2013-01-24 00:30:00,
2013-01-23 18:34:00,35.8,20.8,30.30,NNE,30,5.0,14.0,54,0.00,,---,0.00,VWS V14.01,2013-01-24 00:34:00,
2013-01-23 18:35:00,35.8,20.8,30.30,NNE,30,7.0,14.0,54,0.00,,---,0.00,VWS V14.01,2013-01-24 00:35:00,
2013-01-23 18:39:00,35.6,20.6,30.30,NNE,26,10.0,14.0,54,0.00,,---,0.00,VWS V14.01,2013-01-24 00:39:00,
2013-01-23 18:40:00,35.6,20.6,30.30,NNE,26,4.0,14.0,54,0.00,,---,0.00,VWS V14.01,2013-01-24 00:40:00,
2013-01-23 18:45:00,35.3,20.3,30.30,NNE,23,3.0,14.0,54,0.00,,---,0.00,VWS V14.01,2013-01-24 00:45:00,
2013-01-23 18:50:00,35.2,20.2,30.32,NNE,32,4.0,14.0,54,0.00,,---,0.00,VWS V14.01,2013-01-24 00:50:00,
2013-01-23 18:55:00,34.9,20.0,30.32,NNE,21,4.0,14.0,54,0.00,,---,0.00,VWS V14.01,2013-01-24 00:55:00,
2013-01-23 18:56:00,34.9,20.0,30.32,NNE,21,4.0,14.0,54,0.00,,---,0.00,VWS V14.01,2013-01-24 00:56:00,
2013-01-23 19:00:00,34.6,20.1,30.32,NNE,24,4.0,14.0,55,0.00,,---,0.00,VWS V14.01,2013-01-24 01:00:00,
2013-01-23 19:01:00,34.6,20.1,30.32,NNE,24,3.0,7.0,55,0.00,,---,0.00,VWS V14.01,2013-01-24 01:01:00,
2013-01-23 19:05:00,34.3,19.8,30.32,NNE,28,6.0,14.0,55,0.00,,---,0.00,VWS V14.01,2013-01-24 01:05:00,
2013-01-23 19:06:00,34.1,19.6,30.32,NNE,27,5.0,14.0,55,0.00,,---,0.00,VWS V14.01,2013-01-24 01:06:00,
2013-01-23 19:10:00,33.8,19.8,30.32,NNE,30,4.0,14.0,56,0.00,,---,0.00,VWS V14.01,2013-01-24 01:10:00,
2013-01-23 19:11:00,33.8,19.8,30.32,NNE,30,3.0,14.0,56,0.00,,---,0.00,VWS V14.01,2013-01-24 01:11:00,
2013-01-23 19:12:00,33.8,19.8,30.32,NNE,28,3.0,10.0,56,0.00,,---,0.00,VWS V14.01,2013-01-24 01:12:00,
2013-01-23 19:15:00,33.7,19.7,30.32,NNE,26,5.0,11.0,56,0.00,,---,0.00,VWS V14.01,2013-01-24 01:15:00,
2013-01-23 19:16:00,33.7,19.7,30.32,NNE,26,3.0,11.0,56,0.00,,---,0.00,VWS V14.01,2013-01-24 01:16:00,
2013-01-23 19:17:00,33.5,19.5,30.32,NNE,29,5.0,11.0,56,0.00,,---,0.00,VWS V14.01,2013-01-24 01:17:00,
2013-01-23 19:21:00,33.5,19.9,30.32,NNE,28,3.0,14.0,57,0.00,,---,0.00,VWS V14.01,2013-01-24 01:21:00,
2013-01-23 19:22:00,33.4,19.8,30.32,NNE,28,2.0,5.0,57,0.00,,---,0.00,VWS V14.01,2013-01-24 01:22:00,
2013-01-23 19:26:00,33.2,19.6,30.32,NNE,27,6.0,13.0,57,0.00,,---,0.00,VWS V14.01,2013-01-24 01:26:00,
2013-01-23 19:27:00,33.2,19.6,30.32,NNE,28,2.0,13.0,57,0.00,,---,0.00,VWS V14.01,2013-01-24 01:27:00,